Time;durP1;ratioP1;P1;durP2;ratioP2;P2;SDS_P1;SDS_P2;PMS_P1;PMS_P2;Temp;Humidity;BMP_temperature;BMP_pressure;BME280_temperature;BME280_humidity;BME280_pressure;Samples;Min_cycle;Max_cycle;Signal;HPM_P1;HPM_P2
2022/03/22 00:00:36;;;;;;;35.72;26.80;;;16.70;58.50;;;;;;3998261;29;20065;-65
2022/03/22 00:02:59;;;;;;;35.10;26.08;;;16.70;58.50;;;;;;4003639;29;20129;-65
2022/03/22 00:05:22;;;;;;;33.70;26.13;;;16.70;58.40;;;;;;3996455;29;20533;-65
2022/03/22 00:07:44;;;;;;;35.45;26.20;;;16.60;58.40;;;;;;4003107;29;20110;-65
2022/03/22 00:10:08;;;;;;;33.83;25.48;;;16.70;58.40;;;;;;4003941;29;20053;-65
2022/03/22 00:12:32;;;;;;;33.28;26.33;;;16.60;58.40;;;;;;4003663;29;20533;-65
2022/03/22 00:14:56;;;;;;;36.03;25.58;;;16.60;58.60;;;;;;4003002;29;20137;-65
2022/03/22 00:17:39;;;;;;;33.33;25.63;;;16.60;58.70;;;;;;4003984;29;20523;-65
2022/03/22 00:20:02;;;;;;;34.05;26.00;;;16.60;58.80;;;;;;4003576;29;20165;-65
2022/03/22 00:22:25;;;;;;;35.58;26.90;;;16.60;58.80;;;;;;3988751;29;20062;-65
2022/03/22 00:24:47;;;;;;;37.50;25.92;;;16.60;58.70;;;;;;4002137;29;20165;-65
2022/03/22 00:27:09;;;;;;;37.03;26.33;;;16.50;58.70;;;;;;4003694;29;20118;-65
2022/03/22 00:29:34;;;;;;;36.42;27.05;;;16.50;58.80;;;;;;4003958;29;20066;-65
2022/03/22 00:31:56;;;;;;;35.63;25.92;;;16.50;58.80;;;;;;4003885;29;20073;-65
2022/03/22 00:34:19;;;;;;;38.40;26.45;;;16.50;58.90;;;;;;4003288;29;20053;-65
2022/03/22 00:36:41;;;;;;;36.15;25.25;;;16.50;58.70;;;;;;4003827;29;22192;-65
2022/03/22 00:39:04;;;;;;;31.38;25.00;;;16.50;58.90;;;;;;4003467;29;20068;-65
2022/03/22 00:41:26;;;;;;;37.47;25.77;;;16.50;58.90;;;;;;4003582;29;20133;-65
2022/03/22 00:43:49;;;;;;;35.42;26.98;;;16.50;59.00;;;;;;4003250;29;20053;-65
2022/03/22 00:46:12;;;;;;;34.55;26.33;;;16.50;58.90;;;;;;4003269;29;20054;-65
2022/03/22 00:48:35;;;;;;;34.38;26.38;;;16.40;58.90;;;;;;4003316;29;20147;-65
2022/03/22 00:50:58;;;;;;;36.38;26.60;;;16.40;59.00;;;;;;4002903;29;20058;-64
2022/03/22 00:53:21;;;;;;;33.92;25.40;;;16.40;59.00;;;;;;4003535;29;20114;-64
2022/03/22 00:55:43;;;;;;;33.83;25.58;;;16.40;59.10;;;;;;4003383;29;20064;-64
2022/03/22 00:58:06;;;;;;;32.95;25.60;;;16.40;59.10;;;;;;4003624;29;20050;-64
2022/03/22 01:00:29;;;;;;;37.17;27.80;;;16.40;59.20;;;;;;4002906;29;20114;-64
2022/03/22 01:02:54;;;;;;;35.13;26.88;;;16.30;59.10;;;;;;4003220;29;20141;-66
2022/03/22 01:05:20;;;;;;;35.67;27.17;;;16.30;59.10;;;;;;4002984;29;20058;-66
2022/03/22 01:07:43;;;;;;;37.33;27.25;;;16.30;59.20;;;;;;4003155;29;20094;-65
2022/03/22 01:10:09;;;;;;;35.28;26.75;;;16.30;59.20;;;;;;4001717;29;20058;-65
2022/03/22 01:12:31;;;;;;;36.70;27.35;;;16.30;59.20;;;;;;4003146;29;20062;-65
2022/03/22 01:14:55;;;;;;;35.63;26.13;;;16.30;59.10;;;;;;3989345;29;20054;-65
2022/03/22 01:17:17;;;;;;;33.63;25.63;;;16.30;59.30;;;;;;4002757;29;20495;-65
2022/03/22 01:19:41;;;;;;;35.95;26.02;;;16.30;59.40;;;;;;4002882;29;20061;-65
2022/03/22 01:22:05;;;;;;;35.58;25.67;;;16.20;59.40;;;;;;4003275;29;20065;-64
2022/03/22 01:24:29;;;;;;;34.42;25.73;;;16.20;59.50;;;;;;4003279;29;20046;-64
2022/03/22 01:26:51;;;;;;;38.63;26.38;;;16.20;59.50;;;;;;4002763;29;20052;-64
2022/03/22 01:29:13;;;;;;;36.08;26.05;;;16.20;59.50;;;;;;3988575;29;20505;-65
2022/03/22 01:31:36;;;;;;;33.95;26.05;;;16.20;59.60;;;;;;4003172;29;20497;-65
2022/03/22 01:33:58;;;;;;;35.92;26.38;;;16.20;59.60;;;;;;3987880;29;20565;-65
2022/03/22 01:36:22;;;;;;;34.95;27.77;;;16.20;59.60;;;;;;3987761;29;20053;-65
2022/03/22 01:38:44;;;;;;;36.88;27.55;;;16.20;59.60;;;;;;3987802;29;20068;-65
2022/03/22 01:41:07;;;;;;;35.67;27.30;;;16.20;59.70;;;;;;3961070;29;20414;-65
2022/03/22 01:43:30;;;;;;;38.85;27.10;;;16.10;59.60;;;;;;3987752;29;20413;-65
2022/03/22 01:45:53;;;;;;;36.83;27.45;;;16.10;59.70;;;;;;3987504;29;20055;-65
2022/03/22 01:48:15;;;;;;;35.38;26.67;;;16.10;59.70;;;;;;3988973;29;20070;-64
2022/03/22 01:50:39;;;;;;;34.97;26.40;;;16.10;59.70;;;;;;3987225;29;20051;-64
2022/03/22 01:53:03;;;;;;;36.90;27.52;;;16.10;59.70;;;;;;4002459;29;20466;-64
2022/03/22 01:55:25;;;;;;;34.67;25.35;;;16.10;59.70;;;;;;4002206;29;20050;-65
2022/03/22 01:57:48;;;;;;;34.33;25.75;;;16.10;59.80;;;;;;4002249;29;20114;-64
2022/03/22 02:00:13;;;;;;;33.42;25.80;;;16.10;59.90;;;;;;4001951;29;20110;-64
2022/03/22 02:08:02;;;;;;;37.80;27.95;;;16.00;60.10;;;;;;4002032;29;20495;-64
2022/03/22 02:10:25;;;;;;;37.30;27.95;;;16.00;60.20;;;;;;4001838;29;20041;-65
2022/03/22 02:12:47;;;;;;;36.60;27.38;;;16.00;60.20;;;;;;4001939;29;20102;-64
2022/03/22 02:15:12;;;;;;;34.75;27.00;;;16.00;60.20;;;;;;4002104;29;20052;-64
2022/03/22 02:17:34;;;;;;;35.67;27.52;;;16.00;60.30;;;;;;3987988;29;20540;-64
2022/03/22 02:19:58;;;;;;;34.03;26.02;;;16.00;60.20;;;;;;4001880;29;20409;-64
2022/03/22 02:22:22;;;;;;;35.13;27.38;;;15.90;60.10;;;;;;4001956;29;20491;-64
2022/03/22 02:24:46;;;;;;;37.35;27.17;;;16.00;60.30;;;;;;4001739;29;20513;-64
2022/03/22 02:27:09;;;;;;;41.75;27.85;;;15.90;60.30;;;;;;4001170;29;20050;-64
2022/03/22 02:29:31;;;;;;;36.65;26.92;;;15.90;60.40;;;;;;4002087;29;20058;-64
2022/03/22 02:31:55;;;;;;;35.13;25.88;;;15.90;60.30;;;;;;4002093;29;20073;-64
2022/03/22 02:34:18;;;;;;;36.72;26.55;;;15.90;60.40;;;;;;4001997;29;20145;-63
2022/03/22 02:36:40;;;;;;;34.25;25.80;;;15.90;60.30;;;;;;4001696;29;20053;-63
2022/03/22 02:39:02;;;;;;;38.45;26.92;;;15.90;60.40;;;;;;4001412;29;20198;-63
2022/03/22 02:41:26;;;;;;;37.05;26.52;;;15.90;60.40;;;;;;4001550;29;20057;-63
2022/03/22 02:43:50;;;;;;;33.05;26.10;;;15.90;60.40;;;;;;4001313;29;20062;-65
2022/03/22 02:46:14;;;;;;;34.60;26.98;;;15.90;60.90;;;;;;4001793;29;20061;-64
2022/03/22 02:48:36;;;;;;;35.92;25.85;;;15.90;60.50;;;;;;4002135;29;20053;-64
2022/03/22 02:50:58;;;;;;;40.55;27.33;;;15.90;60.30;;;;;;4001815;29;20183;-64
2022/03/22 02:53:20;;;;;;;39.15;27.73;;;15.90;60.40;;;;;;4001902;29;20060;-64
2022/03/22 02:55:43;;;;;;;33.40;25.67;;;15.90;60.50;;;;;;4001296;29;20049;-65
2022/03/22 02:58:06;;;;;;;35.08;26.85;;;15.90;60.60;;;;;;4001705;29;20515;-66
2022/03/22 03:00:29;;;;;;;36.03;27.13;;;15.80;60.60;;;;;;4001724;29;20093;-65
2022/03/22 03:02:54;;;;;;;38.20;27.38;;;15.80;60.80;;;;;;4001580;29;20053;-65
2022/03/22 03:05:17;;;;;;;38.75;27.23;;;15.80;60.90;;;;;;4001521;29;20050;-65
2022/03/22 03:07:39;;;;;;;37.97;27.70;;;15.80;61.00;;;;;;4001524;29;20061;-65
2022/03/22 03:10:01;;;;;;;40.25;27.02;;;15.80;61.00;;;;;;3989729;29;20058;-65
2022/03/22 03:12:24;;;;;;;36.40;26.60;;;15.80;61.00;;;;;;3987377;29;20137;-65
2022/03/22 03:14:47;;;;;;;36.03;26.65;;;15.70;60.90;;;;;;4001052;29;20061;-65
2022/03/22 03:17:11;;;;;;;38.92;27.83;;;15.80;61.10;;;;;;3986227;29;20062;-64
2022/03/22 03:19:34;;;;;;;37.55;25.95;;;15.70;61.00;;;;;;3999567;29;20057;-66
2022/03/22 03:21:57;;;;;;;33.72;26.17;;;15.70;60.90;;;;;;3986333;29;20046;-66
2022/03/22 03:24:19;;;;;;;36.53;25.80;;;15.70;60.90;;;;;;3986569;29;20241;-66
2022/03/22 03:26:41;;;;;;;38.78;27.08;;;15.70;60.90;;;;;;3989908;29;20424;-66
2022/03/22 03:29:03;;;;;;;35.25;25.80;;;15.70;60.90;;;;;;4001239;29;20056;-66
2022/03/22 03:31:27;;;;;;;36.90;27.30;;;15.70;62.00;;;;;;4001426;29;20549;-66
2022/03/22 03:33:50;;;;;;;37.70;27.90;;;15.70;60.90;;;;;;4001068;29;20065;-66
2022/03/22 03:36:12;;;;;;;37.30;26.67;;;15.70;61.10;;;;;;4001461;29;20121;-65
2022/03/22 03:38:41;;;;;;;36.28;27.23;;;15.80;61.40;;;;;;4001131;29;20050;-65
2022/03/22 03:43:43;;;;;;;32.92;25.85;;;15.90;61.10;;;;;;4000885;29;20117;-66
2022/03/22 03:48:46;;;;;;;35.60;26.08;;;16.00;60.80;;;;;;4000866;29;20050;-66
2022/03/22 03:51:08;;;;;;;37.83;27.17;;;16.00;60.80;;;;;;4001060;29;20065;-65
2022/03/22 03:53:31;;;;;;;38.30;25.73;;;16.00;60.60;;;;;;4001397;29;20165;-65
2022/03/22 03:55:54;;;;;;;36.15;26.70;;;16.00;60.50;;;;;;4001234;29;20042;-65
2022/03/22 03:58:17;;;;;;;37.08;26.27;;;16.00;60.30;;;;;;4000714;29;20060;-63
2022/03/22 04:00:39;;;;;;;34.58;26.25;;;16.00;60.00;;;;;;4000572;29;20369;-65
2022/03/22 04:03:01;;;;;;;33.92;26.10;;;16.00;59.80;;;;;;4000507;29;20058;-65
2022/03/22 04:05:25;;;;;;;33.40;25.85;;;16.00;59.90;;;;;;4000776;29;20072;-65
2022/03/22 04:07:47;;;;;;;36.47;25.75;;;16.00;60.00;;;;;;4000847;29;20050;-65
2022/03/22 04:10:10;;;;;;;31.83;24.02;;;15.90;60.40;;;;;;4001050;29;20142;-65
2022/03/22 04:12:34;;;;;;;33.13;23.75;;;15.90;60.60;;;;;;4000444;29;20054;-66
2022/03/22 04:14:59;;;;;;;33.03;24.75;;;15.90;60.60;;;;;;4000852;29;20057;-66
2022/03/22 04:17:22;;;;;;;33.78;24.73;;;15.80;60.60;;;;;;4000969;29;20449;-65
2022/03/22 04:19:45;;;;;;;36.15;25.25;;;15.80;60.60;;;;;;4000329;29;20133;-65
2022/03/22 04:22:09;;;;;;;32.08;24.88;;;15.80;60.80;;;;;;3999930;29;20503;-66
2022/03/22 04:24:32;;;;;;;34.63;26.00;;;15.70;60.90;;;;;;4000801;29;24996;-65
2022/03/22 04:32:41;;;;;;;36.67;25.25;;;15.70;60.90;;;;;;4000757;29;20050;-65
2022/03/22 04:34:57;;;;;;;37.13;25.42;;;15.70;61.20;;;;;;4000543;29;20050;-65
2022/03/22 04:37:21;;;;;;;35.78;25.50;;;15.60;60.90;;;;;;4001025;29;20111;-65
2022/03/22 04:39:46;;;;;;;34.60;26.27;;;15.70;61.40;;;;;;4000499;29;20126;-65
2022/03/22 04:42:08;;;;;;;37.60;24.92;;;15.70;61.60;;;;;;4000701;29;20081;-65
2022/03/22 04:44:30;;;;;;;35.78;26.00;;;15.80;61.50;;;;;;3999922;29;20877;-65
2022/03/22 04:46:53;;;;;;;36.13;25.45;;;15.80;61.30;;;;;;4003815;29;20490;-65
2022/03/22 04:49:15;;;;;;;34.92;26.27;;;15.90;61.00;;;;;;4003311;29;20173;-65
2022/03/22 04:57:02;;;;;;;36.40;25.98;;;16.00;60.60;;;;;;4003579;29;20493;-65
2022/03/22 04:59:24;;;;;;;34.58;24.92;;;16.10;60.60;;;;;;3999250;29;20061;-65
2022/03/22 05:01:46;;;;;;;33.95;23.40;;;16.10;60.40;;;;;;4003475;29;20370;-65
2022/03/22 05:04:10;;;;;;;32.72;24.75;;;16.10;60.30;;;;;;4003326;29;20052;-65
2022/03/22 05:06:35;;;;;;;30.25;24.65;;;16.00;60.20;;;;;;4003506;29;20133;-65
2022/03/22 05:08:57;;;;;;;35.47;24.95;;;16.00;60.20;;;;;;4003340;29;20118;-65
2022/03/22 05:11:21;;;;;;;35.63;25.50;;;16.00;60.10;;;;;;4003624;29;20062;-65
2022/03/22 05:13:43;;;;;;;35.28;25.45;;;16.00;60.20;;;;;;3998638;29;20177;-65
2022/03/22 05:16:06;;;;;;;32.55;24.25;;;16.00;60.60;;;;;;3994941;29;20524;-65
2022/03/22 05:18:29;;;;;;;34.58;23.55;;;16.10;60.70;;;;;;4002996;29;21762;-65
2022/03/22 05:20:51;;;;;;;30.70;23.05;;;16.10;60.50;;;;;;4003292;29;20073;-65
2022/03/22 05:23:13;;;;;;;31.13;23.48;;;16.20;60.30;;;;;;4003147;29;20061;-65
2022/03/22 05:25:36;;;;;;;33.33;25.15;;;16.20;60.20;;;;;;4003227;29;20079;-65
2022/03/22 05:28:01;;;;;;;34.10;24.08;;;16.20;60.00;;;;;;4003334;29;20053;-65
2022/03/22 05:30:24;;;;;;;34.03;22.70;;;16.20;59.80;;;;;;3978395;29;20050;-65
2022/03/22 05:32:46;;;;;;;32.15;23.67;;;16.30;59.90;;;;;;4002637;29;20489;-65
2022/03/22 05:35:09;;;;;;;29.95;22.98;;;16.30;59.80;;;;;;4002936;29;20062;-65
2022/03/22 05:37:31;;;;;;;33.03;23.30;;;16.20;59.80;;;;;;4003009;29;20387;-65
2022/03/22 05:39:53;;;;;;;35.58;23.70;;;16.20;59.90;;;;;;3988644;29;20107;-65
2022/03/22 05:42:16;;;;;;;34.53;24.73;;;16.20;59.80;;;;;;4003374;29;20069;-65
2022/03/22 05:44:39;;;;;;;30.70;24.70;;;16.20;59.80;;;;;;4002138;29;20152;-65
2022/03/22 05:47:02;;;;;;;34.63;23.42;;;16.20;59.90;;;;;;4002146;29;20397;-66
2022/03/22 05:49:24;;;;;;;31.70;22.42;;;16.20;60.00;;;;;;4002002;29;20053;-66
2022/03/22 05:51:46;;;;;;;34.03;24.58;;;16.20;60.00;;;;;;4002678;29;20058;-66
2022/03/22 05:54:08;;;;;;;34.33;22.35;;;16.20;60.00;;;;;;4002268;29;20264;-66
2022/03/22 05:56:31;;;;;;;32.10;23.98;;;16.20;60.00;;;;;;3988136;29;20057;-65
2022/03/22 05:58:53;;;;;;;34.22;23.83;;;16.20;60.00;;;;;;4002727;29;20050;-65
2022/03/22 06:01:17;;;;;;;35.50;24.52;;;16.20;60.10;;;;;;4002309;29;20060;-65
2022/03/22 06:03:39;;;;;;;31.75;23.05;;;16.10;60.10;;;;;;4002277;29;20479;-65
2022/03/22 06:06:02;;;;;;;29.40;22.50;;;16.10;60.20;;;;;;4002055;29;20061;-66
2022/03/22 06:08:24;;;;;;;30.13;23.38;;;16.10;60.40;;;;;;4002125;29;20058;-66
2022/03/22 06:10:47;;;;;;;30.13;22.23;;;16.10;60.60;;;;;;4002326;29;20057;-66
2022/03/22 06:13:09;;;;;;;28.88;22.30;;;16.20;60.50;;;;;;4002102;29;20058;-66
2022/03/22 06:15:32;;;;;;;32.72;22.70;;;16.20;60.50;;;;;;4002621;29;20126;-66
2022/03/22 06:17:58;;;;;;;33.58;23.73;;;16.20;60.30;;;;;;3987211;29;20057;-65
2022/03/22 06:20:23;;;;;;;30.70;23.35;;;16.20;60.10;;;;;;3986716;29;20065;-66
2022/03/22 06:22:46;;;;;;;34.22;23.88;;;16.20;60.10;;;;;;4001596;29;20054;-66
2022/03/22 06:25:09;;;;;;;29.08;22.83;;;16.20;60.00;;;;;;4002765;29;20054;-65
2022/03/22 06:27:33;;;;;;;32.67;24.23;;;16.20;60.00;;;;;;4001924;29;20142;-64
2022/03/22 06:29:55;;;;;;;37.60;23.42;;;16.20;60.10;;;;;;4002075;29;20054;-64
2022/03/22 06:32:18;;;;;;;30.00;21.95;;;16.20;60.10;;;;;;4001935;29;20165;-64
2022/03/22 06:34:42;;;;;;;30.17;22.90;;;16.10;60.20;;;;;;4001785;29;20556;-64
2022/03/22 06:37:05;;;;;;;30.60;22.95;;;16.10;60.20;;;;;;4002125;29;20477;-61
2022/03/22 06:39:27;;;;;;;32.60;23.77;;;16.10;61.10;;;;;;4001248;29;20056;-64
2022/03/22 06:41:49;;;;;;;31.52;23.08;;;16.10;59.90;;;;;;3987983;29;20151;-64
2022/03/22 06:44:11;;;;;;;29.58;23.45;;;16.20;60.80;;;;;;4002028;29;20045;-65
2022/03/22 06:46:34;;;;;;;32.40;23.05;;;16.20;60.90;;;;;;4001325;29;20370;-65
2022/03/22 06:48:56;;;;;;;35.10;24.40;;;16.20;60.60;;;;;;4001566;29;20113;-65
2022/03/22 06:51:22;;;;;;;32.60;23.60;;;16.30;60.20;;;;;;4001614;29;20396;-64
2022/03/22 06:53:44;;;;;;;33.55;23.90;;;16.30;60.30;;;;;;4000243;29;20052;-64
2022/03/22 06:56:06;;;;;;;30.85;23.33;;;16.20;60.00;;;;;;3998130;29;20500;-64
2022/03/22 06:58:30;;;;;;;33.17;24.52;;;16.20;60.10;;;;;;3999924;29;20042;-63
2022/03/22 07:00:55;;;;;;;36.75;24.90;;;16.20;60.30;;;;;;4001372;29;20057;-65
2022/03/22 07:03:17;;;;;;;32.20;23.77;;;16.20;60.10;;;;;;4001217;29;20092;-65
2022/03/22 07:05:41;;;;;;;35.17;25.25;;;16.20;60.30;;;;;;4001635;29;20413;-64
2022/03/22 07:08:05;;;;;;;35.90;24.73;;;16.10;60.40;;;;;;4001222;29;20057;-65
2022/03/22 07:10:28;;;;;;;32.10;25.15;;;16.10;60.40;;;;;;4001697;29;20066;-64
2022/03/22 07:12:52;;;;;;;34.13;24.42;;;16.10;60.50;;;;;;3997020;29;20125;-64
2022/03/22 07:15:15;;;;;;;40.20;26.30;;;16.10;60.60;;;;;;3986574;29;20141;-64
2022/03/22 07:17:37;;;;;;;36.20;25.13;;;16.10;60.70;;;;;;3988039;29;20137;-64
2022/03/22 07:19:59;;;;;;;36.33;24.83;;;16.10;60.60;;;;;;4000262;29;20389;-64
2022/03/22 07:22:23;;;;;;;37.67;26.58;;;16.10;60.60;;;;;;3987538;29;20085;-64
2022/03/22 07:24:47;;;;;;;37.00;26.95;;;16.00;60.60;;;;;;4001209;29;20416;-64
2022/03/22 07:27:10;;;;;;;33.22;26.27;;;16.00;60.50;;;;;;3986671;29;20136;-64
2022/03/22 07:29:32;;;;;;;41.40;27.65;;;16.00;60.00;;;;;;4000990;29;20065;-64
2022/03/22 07:31:56;;;;;;;36.15;26.65;;;16.00;59.90;;;;;;4001854;29;20050;-64
2022/03/22 07:34:20;;;;;;;39.10;25.90;;;16.00;60.00;;;;;;4000397;29;20054;-64
2022/03/22 07:36:42;;;;;;;39.15;27.20;;;15.90;60.20;;;;;;3999992;29;20057;-64
2022/03/22 07:39:13;;;;;;;44.55;27.75;;;15.90;60.40;;;;;;4001110;29;20061;-63
2022/03/22 07:41:37;;;;;;;38.83;27.23;;;15.80;60.50;;;;;;3987888;29;20062;-64
2022/03/22 07:44:01;;;;;;;36.67;27.88;;;15.90;60.60;;;;;;3999425;29;20481;-64
2022/03/22 07:46:24;;;;;;;38.88;27.20;;;15.80;60.70;;;;;;4001186;29;20050;-64
2022/03/22 07:48:47;;;;;;;38.78;26.73;;;15.80;60.70;;;;;;3998481;29;20053;-64
2022/03/22 07:53:49;;;;;;;41.58;26.55;;;15.80;61.00;;;;;;3997555;29;20519;-65
2022/03/22 07:56:11;;;;;;;35.25;26.08;;;15.80;61.00;;;;;;4000950;29;20057;-65
2022/03/22 07:58:35;;;;;;;46.67;28.67;;;15.80;60.90;;;;;;4000659;29;20156;-64
2022/03/22 08:00:57;;;;;;;37.92;26.90;;;15.80;60.90;;;;;;3999751;29;20054;-65
2022/03/22 08:03:20;;;;;;;36.97;26.42;;;15.80;60.70;;;;;;4001118;29;20447;-65
2022/03/22 08:05:45;;;;;;;35.95;26.48;;;15.90;60.80;;;;;;4001255;29;20565;-65
2022/03/22 08:08:08;;;;;;;37.50;27.58;;;15.90;61.00;;;;;;4000174;29;20110;-65
2022/03/22 08:10:50;;;;;;;36.35;25.92;;;15.90;60.60;;;;;;4000592;29;20058;-65
2022/03/22 08:13:13;;;;;;;37.10;25.50;;;15.90;60.40;;;;;;4000978;29;20218;-65
2022/03/22 08:15:37;;;;;;;41.30;27.48;;;15.90;60.40;;;;;;4001069;29;20060;-65
2022/03/22 08:17:59;;;;;;;37.63;27.20;;;15.90;60.10;;;;;;4001185;29;20077;-56
2022/03/22 08:20:22;;;;;;;43.60;25.75;;;15.90;60.20;;;;;;4002788;29;20505;-65
2022/03/22 08:22:51;;;;;;;41.60;27.20;;;15.90;60.70;;;;;;4004116;29;20061;-65
2022/03/22 08:25:22;;;;;;;45.17;28.25;;;16.00;60.50;;;;;;4003755;29;20495;-65
2022/03/22 08:27:45;;;;;;;45.63;26.80;;;16.00;60.30;;;;;;4003528;29;20134;-65
2022/03/22 08:30:09;;;;;;;37.55;26.67;;;16.10;60.40;;;;;;4003075;29;20396;-65
2022/03/22 08:32:32;;;;;;;37.55;27.00;;;16.10;60.00;;;;;;4003906;29;20132;-65
2022/03/22 08:34:56;;;;;;;48.72;28.10;;;16.10;59.30;;;;;;4003752;29;20458;-65
2022/03/22 08:37:19;;;;;;;40.75;27.58;;;16.10;59.90;;;;;;4003643;29;20388;-66
2022/03/22 08:39:42;;;;;;;37.75;26.75;;;16.10;60.00;;;;;;4003567;29;20065;-66
2022/03/22 08:42:05;;;;;;;38.90;27.70;;;16.20;59.90;;;;;;4003733;29;20058;-66
2022/03/22 08:44:27;;;;;;;39.78;27.30;;;16.20;59.60;;;;;;4005531;29;20510;-65
2022/03/22 08:46:51;;;;;;;42.15;27.67;;;16.20;59.80;;;;;;4003361;29;20077;-66
2022/03/22 08:49:14;;;;;;;41.53;27.73;;;16.20;60.00;;;;;;4003901;29;20061;-66
2022/03/22 08:51:37;;;;;;;42.63;27.42;;;16.20;60.00;;;;;;4003422;29;20054;-66
2022/03/22 08:54:00;;;;;;;42.55;26.90;;;16.20;59.90;;;;;;3988060;29;20421;-65
2022/03/22 08:56:23;;;;;;;38.28;27.98;;;16.20;59.50;;;;;;3988134;29;20058;-65
2022/03/22 08:58:45;;;;;;;38.80;26.33;;;16.20;59.70;;;;;;4015137;29;20128;-65
2022/03/22 09:01:08;;;;;;;40.90;27.23;;;16.30;59.60;;;;;;4002770;29;20046;-65
2022/03/22 09:03:32;;;;;;;40.67;25.92;;;16.30;59.40;;;;;;4003167;29;20114;-65
2022/03/22 09:06:12;;;;;;;40.80;26.30;;;16.30;59.50;;;;;;4003427;29;20110;-66
2022/03/22 09:08:34;;;;;;;40.45;24.75;;;16.30;59.30;;;;;;4003612;29;20497;-66
2022/03/22 09:10:57;;;;;;;38.65;24.88;;;16.30;59.40;;;;;;4003504;29;20556;-65
2022/03/22 09:13:20;;;;;;;33.38;23.48;;;16.30;59.60;;;;;;4003150;29;20061;-65
2022/03/22 09:15:43;;;;;;;39.72;26.55;;;16.40;59.60;;;;;;3988216;29;20054;-65
2022/03/22 09:18:13;;;;;;;35.83;24.73;;;16.40;59.40;;;;;;3988107;29;20057;-65
2022/03/22 09:20:38;;;;;;;40.53;24.75;;;16.40;59.20;;;;;;3987573;29;20065;-66
2022/03/22 09:23:02;;;;;;;42.65;25.05;;;16.40;59.00;;;;;;3988141;29;20390;-66
2022/03/22 09:25:25;;;;;;;38.53;24.05;;;16.50;59.80;;;;;;3987721;29;20520;-66
2022/03/22 09:27:47;;;;;;;39.60;26.38;;;16.50;59.10;;;;;;3987958;29;20081;-66
2022/03/22 09:30:13;;;;;;;32.50;22.63;;;16.50;58.50;;;;;;3994102;29;20057;-65
2022/03/22 09:32:36;;;;;;;34.40;24.27;;;16.50;58.90;;;;;;4002595;29;20054;-65
2022/03/22 09:34:59;;;;;;;39.75;25.23;;;16.60;59.00;;;;;;4002929;29;20054;-65
2022/03/22 09:37:21;;;;;;;40.85;26.80;;;16.60;58.70;;;;;;4002783;29;20469;-65
2022/03/22 09:39:45;;;;;;;37.47;23.65;;;16.60;58.60;;;;;;4002974;29;20140;-65
2022/03/22 09:42:08;;;;;;;34.42;23.95;;;16.60;58.60;;;;;;4002824;29;20432;-65
2022/03/22 09:44:31;;;;;;;41.17;25.10;;;16.60;58.50;;;;;;4002873;29;20057;-65
2022/03/22 09:46:53;;;;;;;39.08;23.45;;;16.70;58.60;;;;;;4002705;29;20050;-65
2022/03/22 09:49:17;;;;;;;35.58;24.50;;;16.70;58.70;;;;;;4002306;29;20054;-67
2022/03/22 09:51:47;;;;;;;36.63;24.38;;;16.70;58.50;;;;;;4002407;29;20050;-65
2022/03/22 09:54:09;;;;;;;39.75;25.55;;;16.70;58.50;;;;;;4002744;29;20758;-65
2022/03/22 09:56:33;;;;;;;40.20;23.83;;;16.70;55.80;;;;;;4002679;29;20110;-65
2022/03/22 09:58:55;;;;;;;38.40;24.85;;;16.80;56.60;;;;;;4002287;29;20049;-65
2022/03/22 10:01:18;;;;;;;43.30;26.48;;;16.80;57.40;;;;;;4001460;29;20057;-64
2022/03/22 10:03:40;;;;;;;42.35;24.83;;;16.80;57.40;;;;;;4001280;29;20056;-67
2022/03/22 10:06:07;;;;;;;39.00;24.33;;;16.80;57.70;;;;;;4002087;29;20085;-67
2022/03/22 10:08:29;;;;;;;41.47;24.17;;;16.90;57.70;;;;;;4005798;29;20129;-67
2022/03/22 10:10:55;;;;;;;35.22;24.08;;;16.90;57.80;;;;;;4000853;29;20049;-67
2022/03/22 10:13:18;;;;;;;41.17;25.00;;;16.90;57.80;;;;;;3998369;29;20089;-67
2022/03/22 10:15:41;;;;;;;38.78;23.67;;;16.90;57.60;;;;;;4002617;29;20409;-67
2022/03/22 10:18:06;;;;;;;38.47;23.77;;;17.00;57.60;;;;;;4002381;29;20091;-67
2022/03/22 10:20:29;;;;;;;35.90;23.88;;;17.00;57.60;;;;;;4000624;29;20061;-67
2022/03/22 10:22:56;;;;;;;39.42;25.35;;;17.00;57.60;;;;;;4002344;29;20076;-67
2022/03/22 10:25:19;;;;;;;37.47;23.42;;;17.00;57.40;;;;;;3987820;29;20193;-67
2022/03/22 10:27:41;;;;;;;37.70;24.50;;;17.10;57.40;;;;;;4001310;29;20446;-67
2022/03/22 10:30:22;;;;;;;43.45;24.63;;;17.10;56.80;;;;;;4000333;29;20524;-67
2022/03/22 10:32:50;;;;;;;37.10;23.48;;;17.10;57.10;;;;;;4001479;29;20122;-67
2022/03/22 10:35:16;;;;;;;35.78;24.15;;;17.20;57.10;;;;;;4001684;29;20046;-67
2022/03/22 10:37:39;;;;;;;34.90;22.77;;;17.20;57.10;;;;;;4001381;29;20074;-68
2022/03/22 10:40:01;;;;;;;36.67;24.60;;;17.20;57.00;;;;;;4001930;29;20102;-67
2022/03/22 10:42:25;;;;;;;36.25;24.70;;;17.20;57.10;;;;;;3997981;29;20054;-68
2022/03/22 10:44:47;;;;;;;42.75;26.65;;;17.30;56.50;;;;;;4000902;29;20058;-67
2022/03/22 10:47:11;;;;;;;34.38;24.13;;;17.30;55.00;;;;;;3988246;29;20054;-67
2022/03/22 10:49:33;;;;;;;35.65;23.40;;;17.40;56.20;;;;;;4001578;29;20576;-67
2022/03/22 10:52:11;;;;;;;44.17;25.48;;;17.40;56.50;;;;;;3986876;29;20065;-67
2022/03/22 10:54:33;;;;;;;41.00;24.00;;;17.40;56.70;;;;;;3993458;29;20057;-67
2022/03/22 10:56:57;;;;;;;33.67;23.35;;;17.40;56.80;;;;;;4000331;29;20504;-66
2022/03/22 10:59:21;;;;;;;37.28;24.10;;;17.50;56.80;;;;;;3995083;29;20062;-67
2022/03/22 11:01:44;;;;;;;36.55;24.00;;;17.50;55.90;;;;;;4001208;29;20112;-68
2022/03/22 11:04:09;;;;;;;38.90;23.58;;;17.50;55.90;;;;;;4001120;29;20049;-68
2022/03/22 11:06:32;;;;;;;33.75;22.90;;;17.50;56.20;;;;;;4001568;29;20069;-67
2022/03/22 11:08:54;;;;;;;39.97;25.38;;;17.60;55.30;;;;;;4001429;29;20454;-67
2022/03/22 11:11:16;;;;;;;36.25;24.30;;;17.60;55.70;;;;;;3986296;29;20517;-67
2022/03/22 11:13:39;;;;;;;37.78;24.20;;;17.60;55.80;;;;;;3985958;29;20071;-67
2022/03/22 11:16:07;;;;;;;40.10;25.38;;;17.60;55.70;;;;;;3993335;29;20046;-67
2022/03/22 11:18:30;;;;;;;39.10;23.98;;;17.70;55.20;;;;;;3999492;29;20042;-66
2022/03/22 11:20:57;;;;;;;37.13;23.17;;;17.70;54.50;;;;;;4001274;29;20118;-67
2022/03/22 11:23:20;;;;;;;40.92;23.60;;;17.80;54.80;;;;;;4001398;29;20065;-67
2022/03/22 11:25:42;;;;;;;33.60;22.27;;;17.80;55.40;;;;;;4001584;29;20052;-67
2022/03/22 11:28:06;;;;;;;35.65;22.55;;;17.80;55.50;;;;;;4001331;29;20064;-67
2022/03/22 11:30:29;;;;;;;40.47;24.92;;;17.80;55.60;;;;;;3987140;29;20053;-66
2022/03/22 11:35:31;;;;;;;34.60;22.13;;;17.90;55.30;;;;;;4001066;29;20057;-66
2022/03/22 11:38:01;;;;;;;39.60;23.67;;;17.90;54.60;;;;;;4001444;29;20060;-67
2022/03/22 11:43:10;;;;;;;33.80;21.58;;;18.00;55.10;;;;;;4004988;29;20052;-67
2022/03/22 11:45:32;;;;;;;37.65;22.48;;;18.00;54.90;;;;;;4001200;29;20057;-67
2022/03/22 11:47:55;;;;;;;38.58;23.33;;;18.00;54.90;;;;;;4006355;29;20065;-67
2022/03/22 11:50:20;;;;;;;37.72;23.00;;;18.10;54.90;;;;;;4017630;29;20053;-67
2022/03/22 11:52:43;;;;;;;36.33;22.23;;;18.10;55.60;;;;;;4000824;29;20053;-67
2022/03/22 11:55:10;;;;;;;36.55;22.00;;;18.10;54.30;;;;;;4002723;29;20077;-67
2022/03/22 11:57:42;;;;;;;36.00;22.08;;;18.10;54.50;;;;;;4002733;29;20650;-68
2022/03/22 12:00:06;;;;;;;34.15;21.45;;;18.10;53.90;;;;;;4003602;29;20049;-67
2022/03/22 12:02:31;;;;;;;34.05;21.55;;;18.20;54.20;;;;;;4000728;29;20519;-67
2022/03/22 12:04:57;;;;;;;34.08;21.50;;;18.20;54.30;;;;;;4002820;29;20389;-67
2022/03/22 12:07:27;;;;;;;38.22;22.45;;;18.20;53.90;;;;;;4004132;29;20058;-67
2022/03/22 12:09:50;;;;;;;38.20;22.00;;;18.20;53.80;;;;;;4003858;29;20061;-65
2022/03/22 12:12:17;;;;;;;34.13;21.88;;;18.20;53.80;;;;;;4004072;29;20058;-66
2022/03/22 12:14:39;;;;;;;35.33;22.88;;;18.20;54.10;;;;;;3989819;29;20157;-67
2022/03/22 12:17:03;;;;;;;42.03;22.08;;;18.30;54.10;;;;;;3989029;29;20081;-67
2022/03/22 12:19:26;;;;;;;40.00;21.88;;;18.30;53.80;;;;;;4002032;29;20057;-66
2022/03/22 12:21:48;;;;;;;35.58;23.15;;;18.30;53.80;;;;;;4003858;29;20056;-65
2022/03/22 12:24:11;;;;;;;36.72;22.90;;;18.30;53.80;;;;;;4003574;29;20058;-65
2022/03/22 12:26:33;;;;;;;35.28;22.15;;;18.40;53.20;;;;;;4002372;29;20064;-66
2022/03/22 12:28:57;;;;;;;37.53;21.98;;;18.40;54.10;;;;;;4003019;29;20081;-66
2022/03/22 12:31:21;;;;;;;42.55;22.65;;;18.40;54.50;;;;;;4004219;29;20434;-65
2022/03/22 12:33:43;;;;;;;39.83;23.65;;;18.40;54.30;;;;;;4005001;29;20149;-66
2022/03/22 12:36:06;;;;;;;34.25;20.65;;;18.40;53.90;;;;;;3988999;29;20066;-66
2022/03/22 12:38:29;;;;;;;39.80;22.75;;;18.40;53.80;;;;;;4004344;29;20569;-67